Time;durP1;ratioP1;P1;durP2;ratioP2;P2;SDS_P1;SDS_P2;PMS_P1;PMS_P2;Temp;Humidity;BMP_temperature;BMP_pressure;BME280_temperature;BME280_humidity;BME280_pressure;Samples;Min_cycle;Max_cycle;Signal;HPM_P1;HPM_P2
2022/11/03 00:00:54;;;;;;;18.30;2.10;;;11.10;99.90;;;;;;6311368;22;20030;-79
2022/11/03 00:03:20;;;;;;;12.25;2.22;;;11.10;99.90;;;;;;6339060;22;20053;-78
2022/11/03 00:06:03;;;;;;;11.00;2.30;;;11.00;99.90;;;;;;6339407;22;20060;-78
2022/11/03 00:08:30;;;;;;;12.82;2.13;;;11.00;99.90;;;;;;6311066;22;20018;-78
2022/11/03 00:11:17;;;;;;;10.75;2.10;;;11.00;99.90;;;;;;6311308;22;20067;-78
2022/11/03 00:13:43;;;;;;;10.80;2.35;;;11.00;99.90;;;;;;6340995;22;20342;-78
2022/11/03 00:16:11;;;;;;;9.32;1.92;;;11.00;99.90;;;;;;6341078;22;20014;-78
2022/11/03 00:18:37;;;;;;;12.05;2.35;;;10.90;99.90;;;;;;6341128;22;20021;-78
2022/11/03 00:21:06;;;;;;;7.05;1.52;;;10.90;99.90;;;;;;6340737;22;20018;-78
2022/11/03 00:23:34;;;;;;;15.32;2.72;;;10.90;99.90;;;;;;6313225;22;20010;-78
2022/11/03 00:26:21;;;;;;;10.73;2.65;;;10.90;99.90;;;;;;6341047;22;20018;-78
2022/11/03 00:28:50;;;;;;;9.68;2.33;;;10.90;99.90;;;;;;6313268;22;20021;-78
2022/11/03 00:31:27;;;;;;;9.85;2.20;;;10.90;99.90;;;;;;6340963;22;20095;-78
2022/11/03 00:33:53;;;;;;;9.38;2.58;;;10.80;99.90;;;;;;6313391;22;20018;-78
2022/11/03 00:36:22;;;;;;;10.95;2.45;;;10.80;99.90;;;;;;6340606;22;20029;-78
2022/11/03 00:38:48;;;;;;;11.60;2.10;;;10.80;99.90;;;;;;6340895;22;20015;-79
2022/11/03 00:41:15;;;;;;;11.05;2.50;;;10.80;99.90;;;;;;6341151;22;20021;-78
2022/11/03 00:43:41;;;;;;;11.73;2.35;;;10.80;99.90;;;;;;6312972;22;20391;-78
2022/11/03 00:46:08;;;;;;;11.63;2.10;;;10.80;99.90;;;;;;6340409;22;20446;-79
2022/11/03 00:48:35;;;;;;;10.40;1.95;;;10.70;99.90;;;;;;6340440;22;20447;-78
2022/11/03 00:51:17;;;;;;;12.80;2.30;;;10.80;99.90;;;;;;6340447;22;20029;-78
2022/11/03 00:53:44;;;;;;;12.48;2.42;;;10.80;99.90;;;;;;6340920;22;20018;-78
2022/11/03 00:56:13;;;;;;;9.30;2.05;;;10.70;99.90;;;;;;6312876;22;20044;-79
2022/11/03 00:58:39;;;;;;;9.50;2.95;;;10.70;99.90;;;;;;6340381;22;20465;-78
2022/11/03 01:01:13;;;;;;;7.43;2.22;;;10.70;99.90;;;;;;6340408;22;20029;-78
2022/11/03 01:06:48;;;;;;;10.35;1.95;;;10.70;99.90;;;;;;6340286;22;20340;-78
2022/11/03 01:09:11;;;;;;;8.85;2.97;;;10.70;99.90;;;;;;6340051;22;20379;-78
2022/11/03 01:11:42;;;;;;;12.75;1.90;;;10.70;99.90;;;;;;6340925;22;20501;-79
2022/11/03 01:14:13;;;;;;;14.15;3.08;;;10.70;99.90;;;;;;6340665;22;20030;-78
2022/11/03 01:16:39;;;;;;;10.20;2.03;;;10.70;99.90;;;;;;6312779;22;20015;-78
2022/11/03 01:19:06;;;;;;;16.55;2.53;;;10.70;99.90;;;;;;6340572;22;20017;-78
2022/11/03 01:21:32;;;;;;;11.25;3.28;;;10.70;99.90;;;;;;6312670;22;20043;-78
2022/11/03 01:24:00;;;;;;;14.80;2.60;;;10.70;99.90;;;;;;6340263;22;20014;-78
2022/11/03 01:26:26;;;;;;;14.18;3.03;;;10.70;99.90;;;;;;6340357;22;20007;-79
2022/11/03 01:28:52;;;;;;;12.60;2.63;;;10.70;99.90;;;;;;6312622;22;20019;-79
2022/11/03 01:31:23;;;;;;;11.55;2.42;;;10.70;99.90;;;;;;6340414;22;20042;-79
2022/11/03 01:33:50;;;;;;;10.60;2.25;;;10.70;99.90;;;;;;6340426;22;20064;-79
2022/11/03 01:36:16;;;;;;;14.23;2.50;;;10.60;99.90;;;;;;6340354;22;20015;-78
2022/11/03 01:38:43;;;;;;;10.85;2.75;;;10.60;99.90;;;;;;6340420;22;20144;-78
2022/11/03 01:41:20;;;;;;;11.63;3.03;;;10.70;99.90;;;;;;6312549;22;20019;-78
2022/11/03 01:44:07;;;;;;;10.80;2.67;;;10.60;99.90;;;;;;6340381;22;20068;-78
2022/11/03 01:46:53;;;;;;;8.05;2.25;;;10.60;99.90;;;;;;6339860;22;20015;-78
2022/11/03 01:49:26;;;;;;;9.55;2.30;;;10.50;99.90;;;;;;6340389;22;20018;-78
2022/11/03 01:52:01;;;;;;;8.85;2.10;;;10.50;99.90;;;;;;6340414;22;20074;-78
2022/11/03 01:54:29;;;;;;;10.32;2.00;;;10.50;99.90;;;;;;6312388;22;20049;-79
2022/11/03 01:56:57;;;;;;;13.20;2.88;;;10.50;99.90;;;;;;6340191;22;20056;-78
2022/11/03 01:59:24;;;;;;;9.60;2.00;;;10.50;99.90;;;;;;6340217;22;20035;-79
2022/11/03 02:01:50;;;;;;;13.73;2.30;;;10.50;99.90;;;;;;6340260;22;20050;-78
2022/11/03 02:04:25;;;;;;;9.32;2.60;;;10.50;99.90;;;;;;6340188;22;20064;-79
2022/11/03 02:06:58;;;;;;;15.27;2.95;;;10.50;99.90;;;;;;6340150;22;20022;-79
2022/11/03 02:09:25;;;;;;;11.00;2.83;;;10.50;99.90;;;;;;6339704;22;20018;-78
2022/11/03 02:12:06;;;;;;;16.10;2.70;;;10.50;99.90;;;;;;6339845;22;20457;-78
2022/11/03 02:14:34;;;;;;;7.97;1.88;;;10.40;99.90;;;;;;6312097;22;20478;-78
2022/11/03 02:17:04;;;;;;;15.55;2.60;;;10.40;99.90;;;;;;6312101;22;20022;-78
2022/11/03 02:19:35;;;;;;;10.05;1.50;;;10.40;99.90;;;;;;6339727;22;20021;-78
2022/11/03 02:22:06;;;;;;;12.18;2.63;;;10.40;99.90;;;;;;6312121;22;20075;-78
2022/11/03 02:24:54;;;;;;;11.32;2.08;;;10.40;99.90;;;;;;6312141;22;20457;-78
2022/11/03 02:27:20;;;;;;;9.05;2.47;;;10.40;99.90;;;;;;6311981;22;20023;-78
2022/11/03 02:29:46;;;;;;;11.63;2.22;;;10.30;99.90;;;;;;6339616;22;20023;-78
2022/11/03 02:32:22;;;;;;;11.50;2.22;;;10.30;99.90;;;;;;6339647;22;20061;-78
2022/11/03 02:34:51;;;;;;;8.15;2.00;;;10.30;99.90;;;;;;6311750;22;20343;-78
2022/11/03 02:37:20;;;;;;;9.45;2.15;;;10.30;99.90;;;;;;6339416;22;20438;-78
2022/11/03 02:39:51;;;;;;;14.27;3.10;;;10.40;99.90;;;;;;6311903;22;20400;-78
2022/11/03 02:42:20;;;;;;;15.98;2.65;;;10.30;99.90;;;;;;6340034;22;20015;-78
2022/11/03 02:44:46;;;;;;;15.45;3.28;;;10.40;99.90;;;;;;6339624;22;20414;-79
2022/11/03 02:47:13;;;;;;;7.22;2.05;;;10.40;99.90;;;;;;6311710;22;20022;-80
2022/11/03 02:49:47;;;;;;;11.80;2.72;;;10.40;99.90;;;;;;6339870;22;20015;-78
2022/11/03 02:52:33;;;;;;;9.32;2.45;;;10.40;99.90;;;;;;6339864;22;20038;-78
2022/11/03 02:55:05;;;;;;;15.98;2.38;;;10.40;99.90;;;;;;6339748;22;20015;-78
2022/11/03 02:57:34;;;;;;;13.90;2.72;;;10.40;99.90;;;;;;6339798;22;20007;-78
2022/11/03 03:00:05;;;;;;;10.90;2.38;;;10.30;99.90;;;;;;6311731;22;20019;-78
2022/11/03 03:03:10;;;;;;;10.85;2.40;;;10.40;99.90;;;;;;6339776;22;20007;-78
2022/11/03 03:05:41;;;;;;;9.18;2.58;;;10.40;99.90;;;;;;6339759;22;20018;-78
2022/11/03 03:08:10;;;;;;;11.82;2.75;;;10.40;99.90;;;;;;6339379;22;20021;-79
2022/11/03 03:10:41;;;;;;;7.57;2.00;;;10.40;99.90;;;;;;6312503;22;20446;-78
2022/11/03 03:13:08;;;;;;;11.15;2.00;;;10.40;99.90;;;;;;6339707;22;20061;-77
2022/11/03 03:16:14;;;;;;;13.55;2.22;;;10.40;99.90;;;;;;6339386;22;20061;-78
2022/11/03 03:18:42;;;;;;;13.30;2.35;;;10.40;99.90;;;;;;6311767;22;20010;-78
2022/11/03 03:21:17;;;;;;;10.70;2.33;;;10.50;99.90;;;;;;6339274;22;20022;-78
2022/11/03 03:23:51;;;;;;;11.18;1.98;;;10.50;99.90;;;;;;6311693;22;20019;-78
2022/11/03 03:26:36;;;;;;;10.20;2.55;;;10.50;99.90;;;;;;6339654;22;20018;-79
2022/11/03 03:29:14;;;;;;;12.88;2.70;;;10.50;99.90;;;;;;6339920;22;20082;-79
2022/11/03 03:31:45;;;;;;;13.45;3.17;;;10.60;99.90;;;;;;6312192;22;20442;-78
2022/11/03 03:34:14;;;;;;;13.32;2.67;;;10.60;99.90;;;;;;6339214;22;20450;-78
2022/11/03 03:36:41;;;;;;;12.52;2.78;;;10.60;99.90;;;;;;6311632;22;20019;-79
2022/11/03 03:39:11;;;;;;;10.00;2.25;;;10.60;99.90;;;;;;6339542;22;20018;-79
2022/11/03 03:41:38;;;;;;;9.40;2.25;;;10.60;99.90;;;;;;6311677;22;20057;-78
2022/11/03 03:44:07;;;;;;;14.35;2.50;;;10.60;99.90;;;;;;6339527;22;20053;-78
2022/11/03 03:46:44;;;;;;;13.30;2.42;;;10.60;99.90;;;;;;6339718;22;20044;-78
2022/11/03 03:49:11;;;;;;;14.10;2.50;;;10.60;99.90;;;;;;6313586;22;20015;-78
2022/11/03 03:51:37;;;;;;;14.65;2.88;;;10.60;99.90;;;;;;6341399;22;20018;-79
2022/11/03 03:54:03;;;;;;;11.07;3.28;;;10.60;99.90;;;;;;6341510;22;20018;-78
2022/11/03 03:57:03;;;;;;;9.90;2.13;;;10.60;99.90;;;;;;6313549;22;20022;-78
2022/11/03 03:59:29;;;;;;;13.55;2.40;;;10.60;99.90;;;;;;6340283;22;20343;-78
2022/11/03 04:01:54;;;;;;;11.27;2.22;;;10.60;99.90;;;;;;6341288;22;20019;-79
2022/11/03 04:04:20;;;;;;;12.05;2.22;;;10.60;99.90;;;;;;6313381;22;20509;-78
2022/11/03 04:06:46;;;;;;;12.63;2.92;;;10.60;99.90;;;;;;6340701;22;20019;-78
2022/11/03 04:09:12;;;;;;;10.68;2.25;;;10.60;99.90;;;;;;6340683;22;20447;-78
2022/11/03 04:22:46;;;;;;;12.82;3.13;;;10.50;99.90;;;;;;6341092;22;20026;-78
2022/11/03 04:25:12;;;;;;;14.88;3.42;;;10.50;99.90;;;;;;6340652;22;20011;-78
2022/11/03 04:27:40;;;;;;;10.23;2.03;;;10.50;99.90;;;;;;6312974;22;20023;-78
2022/11/03 04:30:08;;;;;;;9.25;2.08;;;10.50;99.90;;;;;;6313231;22;20015;-78
2022/11/03 04:32:35;;;;;;;11.30;2.60;;;10.50;99.90;;;;;;6340663;22;20080;-78
2022/11/03 04:35:00;;;;;;;7.18;2.90;;;10.50;99.90;;;;;;6341024;22;20018;-78
2022/11/03 04:37:27;;;;;;;13.40;2.40;;;10.50;99.90;;;;;;6340980;22;20038;-79
2022/11/03 04:39:59;;;;;;;12.05;2.80;;;10.50;99.90;;;;;;6340921;22;20069;-78
2022/11/03 04:42:25;;;;;;;13.38;2.65;;;10.60;99.90;;;;;;6340666;22;20316;-78
2022/11/03 04:44:51;;;;;;;13.50;3.08;;;10.60;99.90;;;;;;6340902;22;20010;-78
2022/11/03 04:47:29;;;;;;;12.98;2.70;;;10.60;99.90;;;;;;6340541;22;20026;-78
2022/11/03 04:49:56;;;;;;;16.77;2.72;;;10.50;99.90;;;;;;6340807;22;20011;-78
2022/11/03 04:52:22;;;;;;;11.27;2.03;;;10.50;99.90;;;;;;6312894;22;20015;-78
2022/11/03 04:54:51;;;;;;;14.40;3.08;;;10.50;99.90;;;;;;6312970;22;20022;-78
2022/11/03 04:57:17;;;;;;;14.70;2.88;;;10.40;99.90;;;;;;6312945;22;20044;-78
2022/11/03 04:59:46;;;;;;;8.27;2.10;;;10.40;99.90;;;;;;6312451;22;20011;-79
2022/11/03 05:05:52;;;;;;;11.68;2.88;;;10.40;99.90;;;;;;6340813;22;20017;-78
2022/11/03 05:08:18;;;;;;;9.05;2.60;;;10.40;99.90;;;;;;6340019;22;20022;-78
2022/11/03 05:10:45;;;;;;;11.35;4.03;;;10.40;99.90;;;;;;6312783;22;20015;-78
2022/11/03 05:13:19;;;;;;;10.60;1.98;;;10.40;99.90;;;;;;6340150;22;20338;-78
2022/11/03 05:15:48;;;;;;;11.95;2.80;;;10.40;99.90;;;;;;6340653;22;20015;-78
2022/11/03 05:18:20;;;;;;;17.30;3.08;;;10.40;99.90;;;;;;6340602;22;20090;-78
2022/11/03 05:21:17;;;;;;;14.38;3.35;;;10.40;99.90;;;;;;6312662;22;20029;-79
2022/11/03 05:23:49;;;;;;;13.25;2.53;;;10.40;99.90;;;;;;6320773;22;20014;-78
2022/11/03 05:26:34;;;;;;;12.88;3.35;;;10.40;99.90;;;;;;6312604;22;20023;-79
2022/11/03 05:29:21;;;;;;;10.95;2.88;;;10.40;99.90;;;;;;6340522;22;20019;-78
2022/11/03 05:31:47;;;;;;;10.95;2.80;;;10.40;99.90;;;;;;6312582;22;20014;-78
2022/11/03 05:34:41;;;;;;;12.00;2.45;;;10.40;99.90;;;;;;6312503;22;20023;-79
2022/11/03 05:37:12;;;;;;;8.15;2.38;;;10.40;99.90;;;;;;6340143;22;20021;-78
2022/11/03 05:39:42;;;;;;;7.78;2.17;;;10.40;99.90;;;;;;6340481;22;20010;-78
2022/11/03 05:42:36;;;;;;;10.50;3.00;;;10.40;99.90;;;;;;6340006;22;20454;-78
2022/11/03 05:45:27;;;;;;;11.07;2.42;;;10.40;99.90;;;;;;6312559;22;20086;-78
2022/11/03 05:47:54;;;;;;;12.07;2.58;;;10.40;99.90;;;;;;6322319;22;20022;-78
2022/11/03 05:50:21;;;;;;;14.35;2.63;;;10.40;99.90;;;;;;6312289;22;20019;-78
2022/11/03 05:52:50;;;;;;;16.65;3.47;;;10.50;99.90;;;;;;6340535;22;20339;-78
2022/11/03 05:55:24;;;;;;;14.40;3.00;;;10.50;99.90;;;;;;6340276;22;20068;-78
2022/11/03 05:57:50;;;;;;;12.88;2.95;;;10.50;99.90;;;;;;6340273;22;20021;-78
2022/11/03 06:00:27;;;;;;;13.52;3.67;;;10.50;99.90;;;;;;6312185;22;20018;-78
2022/11/03 06:02:54;;;;;;;8.98;2.85;;;10.60;99.90;;;;;;6340261;22;20015;-78
2022/11/03 06:05:21;;;;;;;9.07;2.85;;;10.60;99.90;;;;;;6340126;22;20038;-79
2022/11/03 06:07:53;;;;;;;16.52;3.58;;;10.70;99.90;;;;;;6312020;22;20019;-79
2022/11/03 06:10:28;;;;;;;14.80;2.88;;;10.70;99.90;;;;;;6339598;22;20025;-79
2022/11/03 06:12:58;;;;;;;11.88;3.08;;;10.70;99.90;;;;;;6340130;22;20019;-83
2022/11/03 06:15:34;;;;;;;13.27;2.70;;;10.70;99.90;;;;;;6340093;22;20010;-78
2022/11/03 06:18:13;;;;;;;13.52;3.33;;;10.70;99.90;;;;;;6312092;22;20018;-78
2022/11/03 06:20:39;;;;;;;10.77;3.00;;;10.70;99.90;;;;;;6312151;22;20023;-79
2022/11/03 06:23:13;;;;;;;10.43;3.10;;;10.80;99.90;;;;;;6340063;22;20082;-78
2022/11/03 06:25:42;;;;;;;9.80;3.40;;;10.80;99.90;;;;;;6339648;22;20019;-79
2022/11/03 06:28:13;;;;;;;11.82;3.67;;;10.80;99.90;;;;;;6339997;22;20018;-79
2022/11/03 06:30:41;;;;;;;10.05;3.03;;;10.80;99.90;;;;;;6339691;22;20361;-79
2022/11/03 06:33:18;;;;;;;10.98;2.22;;;10.80;99.90;;;;;;6339762;22;20341;-80
2022/11/03 06:35:44;;;;;;;9.82;2.28;;;10.90;99.90;;;;;;6311887;22;20015;-79
2022/11/03 06:38:22;;;;;;;14.38;2.58;;;10.90;99.90;;;;;;6311629;22;20373;-79
2022/11/03 06:40:50;;;;;;;10.02;2.30;;;10.90;99.90;;;;;;6311380;22;20015;-79
2022/11/03 06:43:23;;;;;;;11.40;2.60;;;10.90;99.90;;;;;;6310626;22;20082;-79
2022/11/03 06:46:01;;;;;;;9.25;2.20;;;10.90;99.90;;;;;;6339729;22;20090;-79
2022/11/03 06:48:32;;;;;;;14.23;2.60;;;10.90;99.90;;;;;;6339668;22;20057;-79
2022/11/03 06:50:58;;;;;;;10.98;2.38;;;10.90;99.90;;;;;;6339357;22;20011;-79
2022/11/03 06:53:31;;;;;;;13.15;3.50;;;10.90;99.90;;;;;;6339647;22;20097;-79
2022/11/03 06:55:57;;;;;;;10.07;2.53;;;10.90;99.90;;;;;;6339725;22;20018;-79
2022/11/03 06:58:31;;;;;;;11.82;2.55;;;11.00;99.90;;;;;;6339306;22;20041;-80
2022/11/03 07:01:00;;;;;;;11.38;2.10;;;11.00;99.90;;;;;;6311735;22;20015;-79
2022/11/03 07:03:36;;;;;;;10.07;2.40;;;10.90;99.90;;;;;;6311507;22;20019;-80
2022/11/03 07:06:35;;;;;;;8.07;3.63;;;11.00;99.90;;;;;;6311615;22;20011;-80
2022/11/03 07:09:03;;;;;;;11.15;3.15;;;11.00;99.90;;;;;;6276906;22;20023;-79
2022/11/03 07:11:33;;;;;;;12.02;3.38;;;10.90;99.90;;;;;;6311573;22;20015;-79
2022/11/03 07:14:09;;;;;;;10.50;2.67;;;11.00;99.90;;;;;;6311460;22;20046;-79
2022/11/03 07:16:40;;;;;;;15.82;3.83;;;11.00;99.90;;;;;;6339261;22;20018;-79
2022/11/03 07:19:17;;;;;;;9.73;2.67;;;11.00;99.90;;;;;;6339641;22;20011;-79
2022/11/03 07:21:53;;;;;;;5.75;2.47;;;11.00;99.90;;;;;;6339286;22;20022;-80
2022/11/03 07:24:23;;;;;;;8.00;2.10;;;11.00;99.90;;;;;;6339483;22;20015;-79
2022/11/03 07:27:30;;;;;;;9.65;2.97;;;11.00;99.90;;;;;;6311320;22;20072;-79
2022/11/03 07:30:23;;;;;;;11.93;2.30;;;11.10;99.90;;;;;;6311368;22;20369;-79
2022/11/03 07:32:52;;;;;;;10.23;2.70;;;11.10;99.90;;;;;;6339053;22;20026;-79
2022/11/03 07:35:35;;;;;;;9.48;2.63;;;11.10;99.90;;;;;;6338988;22;20538;-80
2022/11/03 07:38:07;;;;;;;10.70;2.70;;;11.10;99.90;;;;;;6310428;22;20343;-79
2022/11/03 07:40:33;;;;;;;8.48;2.78;;;11.20;99.90;;;;;;6339059;22;20007;-79
2022/11/03 07:43:07;;;;;;;10.82;2.90;;;11.10;99.90;;;;;;6311087;22;20015;-79
2022/11/03 07:45:59;;;;;;;12.48;2.15;;;11.20;99.90;;;;;;6311012;22;20407;-79
2022/11/03 07:48:32;;;;;;;7.13;2.08;;;11.20;99.90;;;;;;6338977;22;20388;-78
2022/11/03 07:51:13;;;;;;;8.18;3.05;;;11.30;99.90;;;;;;6339107;22;20049;-79
2022/11/03 07:53:42;;;;;;;8.90;1.95;;;11.30;99.90;;;;;;6311077;22;20023;-79
2022/11/03 07:56:17;;;;;;;10.30;2.17;;;11.30;99.90;;;;;;6311115;22;20022;-79
2022/11/03 07:58:43;;;;;;;10.45;2.33;;;11.30;99.90;;;;;;6339121;22;20019;-79
2022/11/03 08:01:35;;;;;;;9.23;2.47;;;11.30;99.90;;;;;;6338940;22;20055;-79
2022/11/03 08:04:04;;;;;;;8.95;2.13;;;11.30;99.90;;;;;;6269531;22;20050;-80
2022/11/03 08:06:30;;;;;;;11.80;2.42;;;11.30;99.90;;;;;;6310798;22;20022;-79
2022/11/03 08:08:56;;;;;;;7.38;2.67;;;11.30;99.90;;;;;;6338357;22;20015;-80
2022/11/03 08:11:22;;;;;;;6.95;2.42;;;11.40;99.90;;;;;;6310929;22;20017;-80
2022/11/03 08:13:49;;;;;;;9.10;2.47;;;11.40;99.90;;;;;;6338953;22;20049;-80
2022/11/03 08:16:15;;;;;;;9.60;2.00;;;11.40;99.90;;;;;;6338792;22;20021;-80
2022/11/03 08:18:41;;;;;;;11.20;2.75;;;11.40;99.90;;;;;;6338670;22;20011;-80
2022/11/03 08:21:06;;;;;;;10.90;2.70;;;11.50;99.90;;;;;;6338905;22;20011;-80
2022/11/03 08:23:32;;;;;;;10.38;2.50;;;11.50;99.90;;;;;;6310938;22;20011;-79
2022/11/03 08:25:57;;;;;;;7.82;2.47;;;11.50;99.90;;;;;;6338786;22;20014;-79
2022/11/03 08:28:23;;;;;;;9.70;2.67;;;11.60;99.90;;;;;;6338842;22;20025;-79
2022/11/03 08:30:49;;;;;;;13.00;2.60;;;11.60;99.90;;;;;;6338735;22;20014;-78
2022/11/03 08:33:14;;;;;;;12.38;3.63;;;11.60;99.90;;;;;;6338655;22;20023;-79
2022/11/03 08:35:40;;;;;;;12.25;2.58;;;11.60;99.90;;;;;;6312723;22;20022;-79
2022/11/03 08:38:06;;;;;;;10.10;2.60;;;11.70;99.90;;;;;;6340607;22;20022;-79
2022/11/03 08:40:31;;;;;;;7.22;2.35;;;11.70;99.90;;;;;;6340276;22;20097;-79
2022/11/03 08:42:57;;;;;;;15.90;3.00;;;11.80;99.90;;;;;;6340293;22;20511;-79
2022/11/03 08:45:23;;;;;;;7.63;2.60;;;11.80;99.90;;;;;;6340116;22;20018;-79
2022/11/03 08:47:48;;;;;;;10.13;2.80;;;11.80;99.90;;;;;;6312285;22;20019;-79
2022/11/03 08:50:14;;;;;;;10.38;2.65;;;11.90;99.90;;;;;;6340534;22;20010;-80
2022/11/03 08:52:40;;;;;;;10.02;3.22;;;12.00;99.90;;;;;;6312586;22;20453;-81
2022/11/03 08:55:06;;;;;;;12.25;2.38;;;12.00;99.90;;;;;;6312275;22;20018;-80
2022/11/03 08:57:31;;;;;;;10.43;2.95;;;12.00;99.90;;;;;;6312585;22;20064;-79
2022/11/03 08:59:57;;;;;;;12.82;3.10;;;12.00;99.90;;;;;;6312373;22;20040;-79
2022/11/03 09:02:23;;;;;;;8.80;2.58;;;12.10;99.90;;;;;;6312467;22;20082;-80
2022/11/03 09:04:49;;;;;;;8.73;2.45;;;12.10;99.90;;;;;;6340032;22;20057;-79
2022/11/03 09:07:14;;;;;;;8.40;2.35;;;12.20;99.90;;;;;;6312694;22;20018;-79
2022/11/03 09:09:40;;;;;;;11.20;3.28;;;12.20;99.90;;;;;;6312298;22;20522;-79
2022/11/03 09:12:05;;;;;;;8.45;3.15;;;12.20;99.90;;;;;;6312454;22;20023;-79
2022/11/03 09:14:31;;;;;;;6.63;2.38;;;12.20;99.90;;;;;;6340192;22;20072;-79
2022/11/03 09:16:57;;;;;;;7.18;2.65;;;12.30;99.90;;;;;;6340334;22;20362;-79
2022/11/03 09:19:22;;;;;;;11.40;3.58;;;12.30;99.90;;;;;;6340116;22;20019;-79
2022/11/03 09:21:48;;;;;;;12.65;2.67;;;12.30;99.90;;;;;;6340308;22;20641;-79
2022/11/03 09:24:13;;;;;;;11.40;2.90;;;12.40;99.90;;;;;;6312364;22;20025;-79
2022/11/03 09:26:39;;;;;;;9.05;2.78;;;12.50;99.90;;;;;;6339727;22;20048;-79
2022/11/03 09:29:04;;;;;;;9.23;2.38;;;12.60;99.90;;;;;;6312177;22;20019;-79
2022/11/03 09:31:30;;;;;;;7.50;2.28;;;12.60;99.90;;;;;;6340175;22;20022;-79
2022/11/03 09:33:56;;;;;;;11.07;2.90;;;12.60;99.90;;;;;;6312207;22;20384;-78
2022/11/03 09:36:21;;;;;;;8.48;2.70;;;12.70;99.90;;;;;;6340109;22;20056;-78
2022/11/03 09:38:47;;;;;;;11.00;2.60;;;12.70;99.90;;;;;;6312073;22;20320;-80
2022/11/03 09:41:16;;;;;;;7.30;2.78;;;12.70;99.90;;;;;;6339765;22;20015;-79
2022/11/03 09:43:46;;;;;;;11.23;2.72;;;12.70;99.90;;;;;;6339814;22;20014;-79
2022/11/03 09:46:13;;;;;;;8.93;2.85;;;12.80;99.90;;;;;;6339859;22;20015;-81
2022/11/03 09:48:39;;;;;;;13.00;2.75;;;12.80;99.90;;;;;;6311824;22;20027;-80
2022/11/03 09:51:08;;;;;;;10.88;2.28;;;12.80;99.90;;;;;;6339968;22;20042;-79
2022/11/03 09:53:33;;;;;;;11.52;2.47;;;12.80;99.90;;;;;;6339529;22;20470;-80
2022/11/03 09:55:59;;;;;;;11.30;2.65;;;12.80;99.90;;;;;;6339583;22;20023;-80
2022/11/03 09:58:25;;;;;;;9.25;2.58;;;12.80;99.90;;;;;;6338663;22;20125;-79
2022/11/03 10:00:50;;;;;;;12.32;2.90;;;12.80;99.90;;;;;;6339903;22;20094;-80
2022/11/03 10:03:17;;;;;;;10.23;2.60;;;12.80;99.90;;;;;;6311879;22;20018;-78
2022/11/03 10:05:46;;;;;;;15.38;2.70;;;12.80;99.90;;;;;;6311961;22;20094;-79
2022/11/03 10:08:33;;;;;;;8.80;3.05;;;12.90;99.90;;;;;;6339373;22;20019;-79
2022/11/03 10:11:00;;;;;;;10.88;2.45;;;12.90;99.90;;;;;;6311778;22;20174;-78
2022/11/03 10:13:49;;;;;;;9.30;2.53;;;13.00;99.90;;;;;;6339444;22;20082;-78
2022/11/03 10:16:17;;;;;;;8.88;2.47;;;13.00;99.90;;;;;;6339991;22;20018;-79
2022/11/03 10:18:43;;;;;;;12.30;3.95;;;13.00;99.90;;;;;;6311912;22;20018;-78
2022/11/03 10:21:22;;;;;;;11.95;2.72;;;13.00;99.90;;;;;;6339333;22;20040;-79
2022/11/03 10:23:49;;;;;;;8.15;2.65;;;13.10;99.90;;;;;;6339770;22;20011;-79
2022/11/03 10:26:17;;;;;;;10.35;2.88;;;13.10;99.90;;;;;;6339722;22;20035;-79
2022/11/03 10:29:04;;;;;;;10.57;2.08;;;13.20;99.90;;;;;;6339180;22;20454;-78
2022/11/03 10:31:40;;;;;;;9.07;2.45;;;13.30;99.90;;;;;;6339281;22;20347;-78
2022/11/03 10:34:36;;;;;;;8.77;2.45;;;13.30;99.90;;;;;;6311498;22;20011;-78
2022/11/03 10:37:25;;;;;;;10.23;2.45;;;13.30;99.90;;;;;;6339658;22;20002;-79
2022/11/03 10:39:53;;;;;;;11.20;2.72;;;13.40;99.90;;;;;;6299530;22;20439;-79
2022/11/03 10:42:29;;;;;;;12.60;2.70;;;13.30;99.90;;;;;;6339516;22;20021;-78
2022/11/03 10:45:10;;;;;;;13.98;3.72;;;13.30;99.90;;;;;;6339402;22;20010;-79
2022/11/03 10:47:35;;;;;;;16.23;2.97;;;13.40;99.90;;;;;;6311273;22;20015;-79
2022/11/03 10:50:24;;;;;;;8.50;2.05;;;13.30;99.90;;;;;;6339002;22;20014;-78
2022/11/03 10:52:50;;;;;;;10.73;2.60;;;13.30;99.90;;;;;;6313807;22;20017;-78
2022/11/03 10:55:21;;;;;;;11.43;2.80;;;13.30;99.90;;;;;;6339109;22;20023;-79
2022/11/03 10:57:48;;;;;;;10.20;2.83;;;13.30;99.90;;;;;;6338821;22;20015;-79
2022/11/03 11:00:17;;;;;;;9.05;2.53;;;13.40;99.90;;;;;;6311863;22;20050;-79
2022/11/03 11:02:45;;;;;;;13.85;3.42;;;13.40;99.90;;;;;;6311566;22;20015;-79
2022/11/03 11:05:21;;;;;;;10.30;3.28;;;13.40;99.90;;;;;;6339280;22;20030;-79
2022/11/03 11:07:50;;;;;;;8.65;2.55;;;13.40;99.90;;;;;;6339022;22;20092;-80
2022/11/03 11:10:27;;;;;;;7.63;2.28;;;13.40;99.90;;;;;;6338861;22;20033;-79
2022/11/03 11:13:17;;;;;;;8.85;2.60;;;13.40;99.90;;;;;;6339364;22;20089;-78
2022/11/03 11:15:44;;;;;;;9.02;3.03;;;13.50;99.90;;;;;;6338837;22;20019;-79
2022/11/03 11:18:30;;;;;;;12.07;2.67;;;13.50;99.90;;;;;;6338512;22;20019;-79
2022/11/03 11:20:57;;;;;;;9.32;2.75;;;13.60;99.90;;;;;;6310646;22;20022;-78
2022/11/03 11:23:26;;;;;;;10.65;2.25;;;13.70;99.90;;;;;;6339013;22;20469;-80
2022/11/03 11:26:09;;;;;;;8.57;2.30;;;13.70;99.90;;;;;;6338816;22;20434;-80
2022/11/03 11:28:44;;;;;;;10.52;2.63;;;13.80;99.90;;;;;;6339125;22;20015;-79
2022/11/03 11:31:29;;;;;;;8.00;2.35;;;13.80;99.90;;;;;;6339245;22;20097;-80
2022/11/03 11:34:17;;;;;;;8.00;3.17;;;13.90;99.90;;;;;;6338661;22;20015;-80
2022/11/03 11:36:55;;;;;;;9.75;2.30;;;13.90;99.90;;;;;;6339188;22;20015;-79
2022/11/03 11:39:27;;;;;;;12.40;3.10;;;14.00;99.90;;;;;;6339199;22;20083;-79
2022/11/03 11:42:06;;;;;;;10.27;2.75;;;14.00;99.90;;;;;;6338591;22;20019;-79
2022/11/03 11:44:52;;;;;;;7.40;2.40;;;14.00;99.90;;;;;;6339036;22;20023;-80
2022/11/03 11:47:33;;;;;;;11.02;2.35;;;14.10;99.90;;;;;;6311110;22;20022;-79
2022/11/03 11:50:21;;;;;;;10.80;2.88;;;14.20;99.90;;;;;;6311145;22;20023;-80
2022/11/03 11:52:56;;;;;;;9.85;2.58;;;14.20;99.90;;;;;;6339068;22;20011;-79
2022/11/03 11:55:42;;;;;;;6.78;2.08;;;14.30;99.90;;;;;;6338868;22;20015;-79
2022/11/03 11:58:17;;;;;;;5.07;1.70;;;14.40;99.90;;;;;;6339140;22;20015;-79
2022/11/03 12:01:01;;;;;;;9.25;1.92;;;14.50;99.90;;;;;;6339254;22;20022;-80
2022/11/03 12:03:40;;;;;;;12.20;2.10;;;14.50;99.90;;;;;;6310890;22;20083;-80
2022/11/03 12:06:06;;;;;;;10.25;2.58;;;14.60;99.90;;;;;;6339162;22;20010;-79
2022/11/03 12:08:32;;;;;;;9.85;2.28;;;14.60;99.90;;;;;;6339656;22;20023;-79
2022/11/03 12:11:04;;;;;;;9.95;3.03;;;14.60;99.90;;;;;;6340730;22;20014;-79
2022/11/03 12:13:46;;;;;;;7.32;1.90;;;14.60;99.90;;;;;;6340602;22;20054;-79
2022/11/03 12:16:27;;;;;;;8.32;2.22;;;14.60;99.90;;;;;;6340917;22;20011;-79
2022/11/03 12:18:53;;;;;;;9.68;2.15;;;14.60;99.90;;;;;;6340528;22;20071;-79
2022/11/03 12:21:45;;;;;;;12.57;1.88;;;14.50;99.90;;;;;;6340765;22;20010;-80
2022/11/03 12:24:32;;;;;;;7.15;2.55;;;14.60;99.90;;;;;;6340264;22;20011;-80
2022/11/03 12:27:03;;;;;;;8.18;2.65;;;14.60;99.90;;;;;;6312874;22;20045;-80
2022/11/03 12:29:29;;;;;;;6.95;1.90;;;14.60;99.90;;;;;;6340701;22;20033;-79
2022/11/03 12:31:54;;;;;;;6.43;2.00;;;14.70;99.90;;;;;;6340756;22;20363;-79
2022/11/03 12:34:20;;;;;;;5.78;2.28;;;14.60;99.90;;;;;;6339962;22;20011;-79
2022/11/03 12:36:46;;;;;;;6.35;2.08;;;14.60;99.90;;;;;;6340547;22;20010;-80
2022/11/03 12:39:12;;;;;;;5.50;2.05;;;14.50;99.90;;;;;;6340521;22;20433;-79
2022/11/03 12:41:37;;;;;;;7.97;2.13;;;14.50;99.90;;;;;;6340346;22;20497;-80
2022/11/03 12:44:03;;;;;;;7.65;2.67;;;14.50;99.90;;;;;;6340199;22;20082;-79
2022/11/03 12:46:29;;;;;;;9.30;2.33;;;14.50;99.90;;;;;;6340582;22;20038;-81
2022/11/03 12:48:55;;;;;;;6.75;1.92;;;14.50;99.90;;;;;;6340102;22;20438;-80
2022/11/03 12:51:22;;;;;;;7.70;1.80;;;14.50;99.90;;;;;;6312497;22;20022;-79
2022/11/03 12:53:48;;;;;;;8.30;1.90;;;14.50;99.90;;;;;;6340456;22;20017;-80
2022/11/03 12:56:15;;;;;;;7.40;1.98;;;14.50;99.90;;;;;;6340493;22;20041;-79
2022/11/03 12:58:41;;;;;;;8.65;2.58;;;14.50;99.90;;;;;;6339842;22;20458;-79
2022/11/03 13:01:07;;;;;;;6.38;2.70;;;14.60;99.90;;;;;;6340359;22;20017;-79
2022/11/03 13:03:34;;;;;;;8.15;2.35;;;14.50;99.90;;;;;;6340088;22;20077;-79
2022/11/03 13:06:01;;;;;;;10.68;2.38;;;14.50;99.90;;;;;;6340258;22;20029;-77
2022/11/03 13:08:27;;;;;;;9.07;2.08;;;14.50;99.90;;;;;;6312081;22;20122;-79
2022/11/03 13:10:52;;;;;;;8.88;2.65;;;14.50;99.90;;;;;;6312258;22;20042;-78
2022/11/03 13:13:19;;;;;;;8.65;1.95;;;14.50;99.90;;;;;;6340186;22;20023;-78
2022/11/03 13:15:44;;;;;;;7.38;2.10;;;14.50;99.90;;;;;;6312096;22;20076;-78
2022/11/03 13:18:10;;;;;;;5.43;1.80;;;14.50;99.90;;;;;;6340208;22;20316;-79
2022/11/03 13:20:36;;;;;;;11.98;2.20;;;14.50;99.90;;;;;;6311738;22;20489;-78